sensor_id;sensor_type;location;lat;lon;timestamp;pressure;altitude;pressure_sealevel;temperature;humidity
48386;BME280;34644;47.964;7.982;2023-02-17T00:02:24;97588.19;;;16.69;55.77
48386;BME280;34644;47.964;7.982;2023-02-17T00:09:24;97591.91;;;16.68;55.67
48386;BME280;34644;47.964;7.982;2023-02-17T00:16:25;97602.56;;;16.68;55.71
48386;BME280;34644;47.964;7.982;2023-02-17T00:23:25;97597.22;;;16.68;55.58
48386;BME280;34644;47.964;7.982;2023-02-17T00:30:26;97591.91;;;16.68;55.83
48386;BME280;34644;47.964;7.982;2023-02-17T00:37:26;97591.91;;;16.68;55.77
48386;BME280;34644;47.964;7.982;2023-02-17T00:44:28;97594.56;;;16.68;55.93
48386;BME280;34644;47.964;7.982;2023-02-17T00:51:29;97597.22;;;16.68;55.78
48386;BME280;34644;47.964;7.982;2023-02-17T00:58:29;97590.03;;;16.68;55.90
48386;BME280;34644;47.964;7.982;2023-02-17T01:05:30;97588.19;;;16.69;55.72
48386;BME280;34644;47.964;7.982;2023-02-17T01:12:30;97590.88;;;16.69;55.84
48386;BME280;34644;47.964;7.982;2023-02-17T01:19:31;97586.59;;;16.68;55.89
48386;BME280;34644;47.964;7.982;2023-02-17T01:26:32;97595.34;;;16.68;56.03
48386;BME280;34644;47.964;7.982;2023-02-17T01:33:35;97584.72;;;16.68;56.08
48386;BME280;34644;47.964;7.982;2023-02-17T01:40:35;97574.06;;;16.68;56.11
48386;BME280;34644;47.964;7.982;2023-02-17T01:47:35;97577.56;;;16.69;56.34
48386;BME280;34644;47.964;7.982;2023-02-17T01:54:40;97572.22;;;16.69;56.29
48386;BME280;34644;47.964;7.982;2023-02-17T02:01:42;97583.91;;;16.68;56.44
48386;BME280;34644;47.964;7.982;2023-02-17T02:08:54;97585.53;;;16.69;56.40
48386;BME280;34644;47.964;7.982;2023-02-17T02:15:57;97574.91;;;16.69;56.55
48386;BME280;34644;47.964;7.982;2023-02-17T02:23:07;97557.06;;;16.69;56.52
48386;BME280;34644;47.964;7.982;2023-02-17T02:37:17;97543.19;;;16.67;56.60
48386;BME280;34644;47.964;7.982;2023-02-17T02:44:20;97541.34;;;16.68;56.59
48386;BME280;34644;47.964;7.982;2023-02-17T02:51:26;97543.19;;;16.67;56.56
48386;BME280;34644;47.964;7.982;2023-02-17T03:12:47;97534.41;;;16.67;57.14
48386;BME280;34644;47.964;7.982;2023-02-17T03:19:48;97529.06;;;16.67;57.18
48386;BME280;34644;47.964;7.982;2023-02-17T03:26:50;97526.41;;;16.67;57.33
48386;BME280;34644;47.964;7.982;2023-02-17T03:33:51;97531.72;;;16.67;57.09
48386;BME280;34644;47.964;7.982;2023-02-17T03:40:51;97525.63;;;16.66;57.14
48386;BME280;34644;47.964;7.982;2023-02-17T03:47:52;97531.72;;;16.67;57.22
48386;BME280;34644;47.964;7.982;2023-02-17T03:54:53;97530.69;;;16.68;57.16
48386;BME280;34644;47.964;7.982;2023-02-17T04:01:53;97539.47;;;16.68;57.12
48386;BME280;34644;47.964;7.982;2023-02-17T04:08:53;97526.41;;;16.67;57.13
48386;BME280;34644;47.964;7.982;2023-02-17T04:15:53;97541.59;;;16.66;57.39
48386;BME280;34644;47.964;7.982;2023-02-17T04:22:54;97529.91;;;16.67;57.42
48386;BME280;34644;47.964;7.982;2023-02-17T04:29:54;97514.97;;;16.66;57.34
48386;BME280;34644;47.964;7.982;2023-02-17T04:36:54;97514.97;;;16.66;57.46
48386;BME280;34644;47.964;7.982;2023-02-17T04:43:54;97521.09;;;16.67;57.47
48386;BME280;34644;47.964;7.982;2023-02-17T04:50:55;97524.81;;;16.66;57.44
48386;BME280;34644;47.964;7.982;2023-02-17T04:57:55;97536.25;;;16.66;57.49
48386;BME280;34644;47.964;7.982;2023-02-17T05:04:55;97540.78;;;16.66;57.52
48386;BME280;34644;47.964;7.982;2023-02-17T05:11:56;97550.63;;;16.65;57.81
48386;BME280;34644;47.964;7.982;2023-02-17T05:18:56;97542.63;;;16.65;57.71
48386;BME280;34644;47.964;7.982;2023-02-17T05:25:56;97535.47;;;16.66;57.82
48386;BME280;34644;47.964;7.982;2023-02-17T05:32:57;97538.63;;;16.62;57.82
48386;BME280;34644;47.964;7.982;2023-02-17T05:39:57;97534.34;;;16.61;57.83
48386;BME280;34644;47.964;7.982;2023-02-17T05:46:57;97537.00;;;16.61;57.54
48386;BME280;34644;47.964;7.982;2023-02-17T05:53:57;97549.03;;;16.64;57.59
48386;BME280;34644;47.964;7.982;2023-02-17T06:00:58;97544.50;;;16.64;57.53
48386;BME280;34644;47.964;7.982;2023-02-17T06:07:58;97567.34;;;16.60;57.68
48386;BME280;34644;47.964;7.982;2023-02-17T06:14:58;97555.88;;;16.60;57.72
48386;BME280;34644;47.964;7.982;2023-02-17T06:21:58;97564.69;;;16.60;57.49
48386;BME280;34644;47.964;7.982;2023-02-17T06:28:59;97580.09;;;16.58;57.43
48386;BME280;34644;47.964;7.982;2023-02-17T06:35:59;97582.75;;;16.58;57.47
48386;BME280;34644;47.964;7.982;2023-02-17T06:42:59;97599.78;;;16.57;57.48
48386;BME280;34644;47.964;7.982;2023-02-17T06:50:00;97611.22;;;16.58;57.40
48386;BME280;34644;47.964;7.982;2023-02-17T06:57:00;97600.03;;;16.56;57.29
48386;BME280;34644;47.964;7.982;2023-02-17T07:04:00;97600.03;;;16.56;57.34
48386;BME280;34644;47.964;7.982;2023-02-17T07:11:07;97616.25;;;16.54;57.20
48386;BME280;34644;47.964;7.982;2023-02-17T07:18:08;97624.22;;;16.54;57.19
48386;BME280;34644;47.964;7.982;2023-02-17T07:25:08;97625.50;;;16.52;57.31
48386;BME280;34644;47.964;7.982;2023-02-17T07:32:09;97638.56;;;16.53;57.11
48386;BME280;34644;47.964;7.982;2023-02-17T07:39:09;97639.63;;;16.52;57.09
48386;BME280;34644;47.964;7.982;2023-02-17T07:46:10;97643.34;;;16.51;57.09
48386;BME280;34644;47.964;7.982;2023-02-17T07:53:10;97648.91;;;16.50;57.01
48386;BME280;34644;47.964;7.982;2023-02-17T08:00:10;97646.50;;;16.48;57.11
48386;BME280;34644;47.964;7.982;2023-02-17T08:07:13;97639.56;;;16.47;57.11
48386;BME280;34644;47.964;7.982;2023-02-17T08:14:14;97647.78;;;16.45;57.07
48386;BME280;34644;47.964;7.982;2023-02-17T08:21:14;97654.72;;;16.46;57.09
48386;BME280;34644;47.964;7.982;2023-02-17T08:28:14;97655.22;;;16.43;57.11
48386;BME280;34644;47.964;7.982;2023-02-17T08:35:16;97670.09;;;16.44;56.99
48386;BME280;34644;47.964;7.982;2023-02-17T08:42:18;97665.31;;;16.41;57.20
48386;BME280;34644;47.964;7.982;2023-02-17T08:49:21;97665.31;;;16.41;57.09
48386;BME280;34644;47.964;7.982;2023-02-17T08:56:22;97672.47;;;16.41;57.03
48386;BME280;34644;47.964;7.982;2023-02-17T09:03:23;97691.91;;;16.41;57.14
48386;BME280;34644;47.964;7.982;2023-02-17T09:10:23;97694.81;;;16.40;57.06
48386;BME280;34644;47.964;7.982;2023-02-17T09:17:23;97707.53;;;16.38;57.19
48386;BME280;34644;47.964;7.982;2023-02-17T09:24:24;97710.19;;;16.38;57.09
48386;BME280;34644;47.964;7.982;2023-02-17T09:31:25;97709.41;;;16.37;57.05
48386;BME280;34644;47.964;7.982;2023-02-17T09:38:26;97714.97;;;16.36;57.04
48386;BME280;34644;47.964;7.982;2023-02-17T09:45:27;97709.63;;;16.36;57.05
48386;BME280;34644;47.964;7.982;2023-02-17T09:52:39;97708.84;;;16.35;57.02
48386;BME280;34644;47.964;7.982;2023-02-17T09:59:44;97723.97;;;16.35;56.88
48386;BME280;34644;47.964;7.982;2023-02-17T10:06:46;97722.16;;;16.35;56.99
48386;BME280;34644;47.964;7.982;2023-02-17T10:13:47;97713.59;;;16.33;56.89
48386;BME280;34644;47.964;7.982;2023-02-17T10:20:55;97714.41;;;16.34;56.85
48386;BME280;34644;47.964;7.982;2023-02-17T10:28:08;97712.78;;;16.33;56.80
48386;BME280;34644;47.964;7.982;2023-02-17T10:35:13;97724.47;;;16.32;56.88
48386;BME280;34644;47.964;7.982;2023-02-17T10:42:36;97733.50;;;16.31;56.91
48386;BME280;34644;47.964;7.982;2023-02-17T10:49:36;97737.22;;;16.30;56.92
48386;BME280;34644;47.964;7.982;2023-02-17T10:56:40;97721.25;;;16.30;56.85
48386;BME280;34644;47.964;7.982;2023-02-17T11:03:43;97716.97;;;16.28;56.88
48386;BME280;34644;47.964;7.982;2023-02-17T11:10:43;97707.16;;;16.29;56.96
48386;BME280;34644;47.964;7.982;2023-02-17T11:17:44;97716.97;;;16.28;56.96
48386;BME280;34644;47.964;7.982;2023-02-17T11:24:44;97705.53;;;16.28;56.93
48386;BME280;34644;47.964;7.982;2023-02-17T11:32:00;97704.75;;;16.27;56.83
48386;BME280;34644;47.964;7.982;2023-02-17T11:39:02;97708.44;;;16.26;56.95
48386;BME280;34644;47.964;7.982;2023-02-17T11:53:23;97707.63;;;16.26;56.81
48386;BME280;34644;47.964;7.982;2023-02-17T12:00:27;97696.19;;;16.25;56.83
48386;BME280;34644;47.964;7.982;2023-02-17T12:22:19;97688.44;;;16.24;56.82
48386;BME280;34644;47.964;7.982;2023-02-17T12:29:28;97686.84;;;16.23;56.75
48386;BME280;34644;47.964;7.982;2023-02-17T12:36:33;97682.31;;;16.23;56.78
48386;BME280;34644;47.964;7.982;2023-02-17T12:43:50;97681.75;;;16.21;56.81
48386;BME280;34644;47.964;7.982;2023-02-17T12:50:58;97682.56;;;16.22;56.86
48386;BME280;34644;47.964;7.982;2023-02-17T12:58:00;97673.00;;;16.21;56.85
48386;BME280;34644;47.964;7.982;2023-02-17T13:05:03;97671.13;;;16.21;56.84
48386;BME280;34644;47.964;7.982;2023-02-17T13:12:13;97665.00;;;16.21;56.72
48386;BME280;34644;47.964;7.982;2023-02-17T13:19:15;97659.94;;;16.19;56.82
48386;BME280;34644;47.964;7.982;2023-02-17T13:47:25;97641.94;;;16.26;56.42
48386;BME280;34644;47.964;7.982;2023-02-17T13:54:28;97635.25;;;16.24;56.66
48386;BME280;34644;47.964;7.982;2023-02-17T14:01:28;97636.06;;;16.24;56.63
48386;BME280;34644;47.964;7.982;2023-02-17T14:08:39;97643.81;;;16.26;56.49
48386;BME280;34644;47.964;7.982;2023-02-17T14:15:50;97643.81;;;16.26;56.54
48386;BME280;34644;47.964;7.982;2023-02-17T14:22:58;97639.28;;;16.26;56.38
48386;BME280;34644;47.964;7.982;2023-02-17T14:29:58;97644.59;;;16.26;56.56
48386;BME280;34644;47.964;7.982;2023-02-17T14:37:06;97656.84;;;16.27;56.48
48386;BME280;34644;47.964;7.982;2023-02-17T14:44:06;97668.53;;;16.26;56.64
48386;BME280;34644;47.964;7.982;2023-02-17T14:51:10;97663.22;;;16.26;56.45
48386;BME280;34644;47.964;7.982;2023-02-17T14:58:18;97665.88;;;16.26;56.53
48386;BME280;34644;47.964;7.982;2023-02-17T15:05:19;97664.25;;;16.25;56.48
48386;BME280;34644;47.964;7.982;2023-02-17T15:12:20;97649.91;;;16.26;56.45
48386;BME280;34644;47.964;7.982;2023-02-17T15:19:20;97644.41;;;16.33;56.05
48386;BME280;34644;47.964;7.982;2023-02-17T15:26:21;97628.69;;;16.32;56.07
48386;BME280;34644;47.964;7.982;2023-02-17T15:33:21;97621.84;;;16.36;56.25
48386;BME280;34644;47.964;7.982;2023-02-17T15:40:23;97607.50;;;16.37;56.22
48386;BME280;34644;47.964;7.982;2023-02-17T15:47:24;97610.47;;;16.40;56.14
48386;BME280;34644;47.964;7.982;2023-02-17T15:54:24;97600.88;;;16.39;56.04
48386;BME280;34644;47.964;7.982;2023-02-17T16:01:28;97589.44;;;16.39;55.93
48386;BME280;34644;47.964;7.982;2023-02-17T16:08:29;97591.53;;;16.37;56.19
48386;BME280;34644;47.964;7.982;2023-02-17T16:15:30;97609.59;;;16.35;56.12
48386;BME280;34644;47.964;7.982;2023-02-17T16:22:31;97604.28;;;16.35;56.10
48386;BME280;34644;47.964;7.982;2023-02-17T16:29:32;97623.38;;;16.32;56.05
48386;BME280;34644;47.964;7.982;2023-02-17T16:36:33;97620.72;;;16.32;56.04
48386;BME280;34644;47.964;7.982;2023-02-17T16:43:34;97612.97;;;16.30;56.08
48386;BME280;34644;47.964;7.982;2023-02-17T16:50:34;97618.53;;;16.28;55.91
48386;BME280;34644;47.964;7.982;2023-02-17T16:57:34;97607.91;;;16.28;55.91
48386;BME280;34644;47.964;7.982;2023-02-17T17:04:35;97619.63;;;16.27;55.87
48386;BME280;34644;47.964;7.982;2023-02-17T17:11:35;97630.25;;;16.27;55.89
48386;BME280;34644;47.964;7.982;2023-02-17T17:18:35;97646.22;;;16.27;55.80
48386;BME280;34644;47.964;7.982;2023-02-17T17:25:36;97637.66;;;16.25;55.81
48386;BME280;34644;47.964;7.982;2023-02-17T17:32:37;97641.94;;;16.26;55.83
48386;BME280;34644;47.964;7.982;2023-02-17T17:39:37;97653.63;;;16.25;55.62
48386;BME280;34644;47.964;7.982;2023-02-17T17:46:39;97665.88;;;16.26;55.79
48386;BME280;34644;47.964;7.982;2023-02-17T17:53:39;97675.72;;;16.26;55.72
48386;BME280;34644;47.964;7.982;2023-02-17T18:00:40;97672.00;;;16.27;55.78
48386;BME280;34644;47.964;7.982;2023-02-17T18:07:40;97665.63;;;16.28;55.72
48386;BME280;34644;47.964;7.982;2023-02-17T18:14:41;97675.22;;;16.29;55.76
48386;BME280;34644;47.964;7.982;2023-02-17T18:21:42;97677.91;;;16.29;55.86
48386;BME280;34644;47.964;7.982;2023-02-17T18:28:43;97682.16;;;16.30;55.94
48386;BME280;34644;47.964;7.982;2023-02-17T18:35:44;97670.72;;;16.30;55.84
48386;BME280;34644;47.964;7.982;2023-02-17T18:42:44;97682.16;;;16.30;55.96
48386;BME280;34644;47.964;7.982;2023-02-17T18:49:45;97694.66;;;16.30;55.86
48386;BME280;34644;47.964;7.982;2023-02-17T18:56:45;97688.53;;;16.29;55.78
48386;BME280;34644;47.964;7.982;2023-02-17T19:03:45;97698.09;;;16.30;55.88
48386;BME280;34644;47.964;7.982;2023-02-17T19:10:45;97709.16;;;16.39;56.74
48386;BME280;34644;47.964;7.982;2023-02-17T19:17:46;97736.78;;;16.38;56.71
48386;BME280;34644;47.964;7.982;2023-02-17T19:24:51;97720.34;;;16.41;56.87
48386;BME280;34644;47.964;7.982;2023-02-17T19:31:52;97733.59;;;16.36;57.20
48386;BME280;34644;47.964;7.982;2023-02-17T19:38:53;97741.56;;;16.36;56.98
48386;BME280;34644;47.964;7.982;2023-02-17T19:45:54;97748.75;;;16.35;56.79
48386;BME280;34644;47.964;7.982;2023-02-17T19:52:54;97745.03;;;16.36;57.37
48386;BME280;34644;47.964;7.982;2023-02-17T19:59:54;97752.22;;;16.36;57.39
48386;BME280;34644;47.964;7.982;2023-02-17T20:06:55;97770.81;;;16.36;57.44
48386;BME280;34644;47.964;7.982;2023-02-17T20:13:56;97764.72;;;16.35;57.53
48386;BME280;34644;47.964;7.982;2023-02-17T20:20:57;97777.78;;;16.37;57.99
48386;BME280;34644;47.964;7.982;2023-02-17T20:27:57;97771.63;;;16.36;58.10
48386;BME280;34644;47.964;7.982;2023-02-17T20:34:57;97775.34;;;16.35;57.85
48386;BME280;34644;47.964;7.982;2023-02-17T20:41:58;97792.13;;;16.36;57.89
48386;BME280;34644;47.964;7.982;2023-02-17T20:48:58;97775.34;;;16.35;57.96
48386;BME280;34644;47.964;7.982;2023-02-17T20:55:58;97780.69;;;16.35;58.00
48386;BME280;34644;47.964;7.982;2023-02-17T21:02:58;97787.28;;;16.33;59.43
48386;BME280;34644;47.964;7.982;2023-02-17T21:09:59;97778.63;;;16.08;61.43
48386;BME280;34644;47.964;7.982;2023-02-17T21:16:59;97788.94;;;16.05;61.20
48386;BME280;34644;47.964;7.982;2023-02-17T21:23:59;97773.63;;;16.12;61.89
48386;BME280;34644;47.964;7.982;2023-02-17T21:30:59;97781.94;;;16.16;62.73
48386;BME280;34644;47.964;7.982;2023-02-17T21:38:00;97785.97;;;16.18;63.38
48386;BME280;34644;47.964;7.982;2023-02-17T21:45:00;97788.88;;;16.17;63.58
48386;BME280;34644;47.964;7.982;2023-02-17T21:52:00;97787.00;;;16.17;64.21
48386;BME280;34644;47.964;7.982;2023-02-17T21:59:01;97790.50;;;16.18;64.13
48386;BME280;34644;47.964;7.982;2023-02-17T22:06:10;97792.34;;;16.17;64.17
48386;BME280;34644;47.964;7.982;2023-02-17T22:13:11;97792.34;;;16.17;64.89
48386;BME280;34644;47.964;7.982;2023-02-17T22:20:11;97793.41;;;16.16;64.94
48386;BME280;34644;47.964;7.982;2023-02-17T22:27:11;97798.72;;;16.16;65.07
48386;BME280;34644;47.964;7.982;2023-02-17T22:34:12;97803.22;;;16.16;65.39
48386;BME280;34644;47.964;7.982;2023-02-17T22:41:14;97802.97;;;16.17;65.53
48386;BME280;34644;47.964;7.982;2023-02-17T22:48:14;97801.84;;;16.13;65.75
48386;BME280;34644;47.964;7.982;2023-02-17T22:55:14;97795.47;;;16.14;66.04
48386;BME280;34644;47.964;7.982;2023-02-17T23:02:15;97807.72;;;16.15;66.30
48386;BME280;34644;47.964;7.982;2023-02-17T23:09:15;97806.94;;;16.15;66.00
48386;BME280;34644;47.964;7.982;2023-02-17T23:16:17;97803.44;;;16.14;66.58
48386;BME280;34644;47.964;7.982;2023-02-17T23:23:18;97800.00;;;16.14;66.63
48386;BME280;34644;47.964;7.982;2023-02-17T23:30:19;97798.13;;;16.14;66.48
48386;BME280;34644;47.964;7.982;2023-02-17T23:37:20;97792.00;;;16.14;66.61
48386;BME280;34644;47.964;7.982;2023-02-17T23:44:20;97780.34;;;16.15;66.63
48386;BME280;34644;47.964;7.982;2023-02-17T23:51:20;97782.75;;;16.16;66.63
48386;BME280;34644;47.964;7.982;2023-02-17T23:58:21;97781.63;;;16.12;67.14
